Fort Liard, Canada
Current Conditions -  °F | °C
As of 8:00 PM on Friday 28 Nov 2014 (Local Time) from CYYE Reporting Station
Clear Clear  
Wind Chill: -30°   Ceiling: Unl
Heat Index: -30°   Visibility: 15mi
Dew Point: -33°   Wind: 2mph
Humidity: 76%   Direction: 290°WNW
Pressure: 29.98"   Gusts: NA
Location:  60.23°N, 123.48°W
Report Text: CYYE 290300Z 29002KT 15SM SKC M30/M33 A2998 RMK SLP208
Loading
Personal Weather Stations






























Interactive Weather Map New forecast layout! Learn more

10-Day Weather Forecast

Advertisements
Track Severe Weather on mobile